Hovedside
METAR-TAF:

METAR-TAF

Lufthavner :

Larnaka internasjonale lufthavn

Larnaka, Kypros

breddegrad: 34-53N, lengdegrad: 033-38E, høyde over havet: 2 m

Gjeldene værobservasjon

Denne rapporten ble laget for 38 minutter siden, klokken 11:00 UTC
Vind 11 kt fra Sør-sørøst
Temperatur 31°C
Luftfuktighet 55%
Trykk 1009 hPa
Sikt 10 km eller mer
Få skyer i en høyde av 3000 ft

METAR: LCLK 201100Z 16011KT 9999 FEW030 31/21 Q1009 NOSIG

Tid: 14:38 (11:38 UTC)

Varsel

Denne rapporten ble laget for 6 timer og 8 minutter siden, klokken 05:30 UTC
Varsel gyldig fra 20. klokken 06 UTC til 21. klokken 06 UTC
Vind 8 kt fra Sør-sørøst
Sikt 10 km eller mer
Få skyer i en høyde av 3000 ft
Blir
fra 20. klokken 09 UTC til 20. klokken 12 UTC
Vind 14 kt fra Sør-sørvest
Blir
fra 20. klokken 16 UTC til 20. klokken 18 UTC
Vind 9 kt fra Nordvest

TAF: LCLK 200530Z 2006/2106 15008KT 9999 FEW030 BECMG 2009/2012 21014KT BECMG 2016/2018 32009KT

Værobservasjoner og værvarsel for over 4000 flyplasser (METAR- og TAF-rapporter).

Tilgjengelige stasjoner er representert av de røde og gule prikkene på kartet.

Hold musepekeren over prikken for å se navnet på stasjonen.

Klikk så for å se værobservasjoner og -varsler.

For å forandre kartet kan du klikke på den grønne knappen med svart kryss for å zoome inn, på den grønne knappen med strek for å zoome ut, eller på de grønne pilene for å se tilstøtende kart.


METAR-TAF: